Time;durP1;ratioP1;P1;durP2;ratioP2;P2;SDS_P1;SDS_P2;PMS_P1;PMS_P2;Temp;Humidity;BMP_temperature;BMP_pressure;BME280_temperature;BME280_humidity;BME280_pressure;Samples;Min_cycle;Max_cycle;Signal;HPM_P1;HPM_P2
2022/04/19 00:00:52;;;;;;;0.70;0.70;;;0.40;99.90;;;;;;4975316;28;20655;-85
2022/04/19 00:03:19;;;;;;;0.70;0.70;;;0.40;99.90;;;;;;4974146;28;20207;-86
2022/04/19 00:05:46;;;;;;;0.88;0.88;;;0.30;99.90;;;;;;4973734;28;20247;-85
2022/04/19 00:08:13;;;;;;;0.77;0.77;;;0.30;99.90;;;;;;4973754;28;20201;-85
2022/04/19 00:10:40;;;;;;;0.70;0.70;;;0.30;99.90;;;;;;4974086;28;20200;-87
2022/04/19 00:13:07;;;;;;;0.70;0.70;;;0.30;99.90;;;;;;4991906;28;20202;-87
2022/04/19 00:15:33;;;;;;;0.60;0.60;;;0.30;99.90;;;;;;4985878;28;20215;-87
2022/04/19 00:18:02;;;;;;;1.10;1.00;;;0.30;99.90;;;;;;4974994;28;20259;-87
2022/04/19 00:20:28;;;;;;;1.20;1.10;;;0.30;99.90;;;;;;4974960;28;20192;-86
2022/04/19 00:22:54;;;;;;;0.80;0.80;;;0.30;99.90;;;;;;4954521;29;20204;-85
2022/04/19 00:25:20;;;;;;;0.70;0.70;;;0.20;99.90;;;;;;4954654;29;20291;-85
2022/04/19 00:27:46;;;;;;;0.80;0.80;;;0.20;99.90;;;;;;4985090;28;20573;-86
2022/04/19 00:30:13;;;;;;;0.60;0.60;;;0.20;99.90;;;;;;4994063;28;20203;-87
2022/04/19 00:32:39;;;;;;;0.73;0.73;;;0.10;99.90;;;;;;4993200;28;20200;-87
2022/04/19 00:35:07;;;;;;;0.80;0.80;;;0.10;99.90;;;;;;4993782;28;20199;-86
2022/04/19 00:37:33;;;;;;;0.70;0.70;;;0.10;99.90;;;;;;4994958;28;20566;-86
2022/04/19 00:40:00;;;;;;;0.77;0.77;;;0.00;99.90;;;;;;4994206;28;20199;-86
2022/04/19 00:42:28;;;;;;;0.80;0.80;;;0.00;99.90;;;;;;4976821;28;20721;-86
2022/04/19 00:45:00;;;;;;;0.60;0.60;;;0.00;99.90;;;;;;4985126;28;20211;-86
2022/04/19 00:47:26;;;;;;;0.60;0.60;;;0.00;99.90;;;;;;4970011;28;20232;-85
2022/04/19 00:49:52;;;;;;;0.60;0.60;;;-0.10;99.90;;;;;;4955538;29;20248;-86
2022/04/19 00:52:18;;;;;;;0.60;0.60;;;-0.10;99.90;;;;;;4954270;29;20236;-85
2022/04/19 00:54:46;;;;;;;0.85;0.85;;;-0.20;99.90;;;;;;4938435;29;20683;-86
2022/04/19 00:57:14;;;;;;;0.60;0.60;;;-0.20;99.90;;;;;;4937508;29;20205;-85
2022/04/19 00:59:40;;;;;;;0.80;0.80;;;-0.20;99.90;;;;;;4938402;29;20223;-86
2022/04/19 01:02:06;;;;;;;0.75;0.75;;;-0.20;99.90;;;;;;4959136;29;20668;-86
2022/04/19 01:04:32;;;;;;;0.80;0.80;;;-0.30;99.90;;;;;;4958652;29;20256;-86
2022/04/19 01:06:59;;;;;;;0.80;0.80;;;-0.30;99.90;;;;;;4941958;29;20248;-85
2022/04/19 01:09:25;;;;;;;0.60;0.60;;;-0.40;99.90;;;;;;4941718;29;20197;-86
2022/04/19 01:14:39;;;;;;;0.65;0.65;;;-0.40;99.90;;;;;;4978911;28;20210;-87
2022/04/19 01:17:08;;;;;;;0.80;0.80;;;-0.50;99.90;;;;;;4979109;28;20224;-87
2022/04/19 01:19:40;;;;;;;0.65;0.65;;;-0.50;99.90;;;;;;4961650;28;20247;-86
2022/04/19 01:22:06;;;;;;;0.45;0.45;;;-0.60;99.90;;;;;;4961244;28;20203;-87
2022/04/19 01:24:36;;;;;;;0.90;0.90;;;-0.60;99.90;;;;;;4993605;28;20346;-85
2022/04/19 01:27:03;;;;;;;0.70;0.70;;;-0.60;99.90;;;;;;4996942;28;20200;-85
2022/04/19 01:29:30;;;;;;;0.80;0.80;;;-0.70;99.90;;;;;;4996759;28;20203;-86
2022/04/19 01:31:55;;;;;;;0.70;0.70;;;-0.70;99.90;;;;;;4980597;28;20210;-86
2022/04/19 01:34:21;;;;;;;0.60;0.60;;;-0.70;99.90;;;;;;4995969;28;20199;-85
2022/04/19 01:36:47;;;;;;;1.00;1.00;;;-0.70;99.90;;;;;;4980078;28;20651;-84
2022/04/19 01:39:13;;;;;;;0.75;0.75;;;-0.70;99.90;;;;;;4996484;28;20191;-84
2022/04/19 01:41:40;;;;;;;0.50;0.50;;;-0.70;99.90;;;;;;4996155;28;20207;-84
2022/04/19 01:44:09;;;;;;;0.75;0.75;;;-0.70;99.90;;;;;;4980003;28;20206;-84
2022/04/19 01:46:35;;;;;;;0.70;0.70;;;-0.70;99.90;;;;;;4995984;28;20271;-84
2022/04/19 01:49:05;;;;;;;0.60;0.60;;;-0.70;99.90;;;;;;4980338;28;20207;-85
2022/04/19 01:51:31;;;;;;;0.70;0.70;;;-0.70;99.90;;;;;;4997047;28;20191;-84
2022/04/19 01:53:57;;;;;;;0.80;0.80;;;-0.80;99.90;;;;;;4980085;28;20629;-85
2022/04/19 01:56:23;;;;;;;0.70;0.70;;;-0.80;99.90;;;;;;4997268;28;20226;-85
2022/04/19 01:58:49;;;;;;;0.75;0.75;;;-0.80;99.90;;;;;;4997232;28;20207;-84
2022/04/19 02:01:15;;;;;;;0.70;0.70;;;-0.90;99.90;;;;;;4990224;28;20200;-85
2022/04/19 02:03:41;;;;;;;0.80;0.80;;;-0.90;99.90;;;;;;4995732;28;20278;-85
2022/04/19 02:06:08;;;;;;;0.70;0.70;;;-0.90;99.90;;;;;;4976299;28;20340;-85
2022/04/19 02:08:34;;;;;;;0.70;0.70;;;-0.90;99.90;;;;;;4977198;28;20208;-85
2022/04/19 02:11:00;;;;;;;0.70;0.70;;;-1.00;99.90;;;;;;4977671;28;20275;-85
2022/04/19 02:13:26;;;;;;;0.80;0.80;;;-1.00;99.90;;;;;;4959380;28;20224;-85
2022/04/19 02:15:52;;;;;;;0.73;0.73;;;-1.00;99.90;;;;;;4977054;28;20232;-85
2022/04/19 02:18:19;;;;;;;0.77;0.77;;;-1.00;99.90;;;;;;4975341;28;20201;-85
2022/04/19 02:20:45;;;;;;;0.60;0.60;;;-1.10;99.90;;;;;;4973323;28;20684;-83
2022/04/19 02:23:13;;;;;;;1.10;1.08;;;-1.10;99.90;;;;;;4971292;28;20196;-85
2022/04/19 02:25:38;;;;;;;1.10;1.00;;;-1.10;99.90;;;;;;4975895;28;20242;-85
2022/04/19 02:28:06;;;;;;;0.70;0.70;;;-1.10;99.90;;;;;;4977556;28;20200;-85
2022/04/19 02:30:32;;;;;;;0.70;0.70;;;-1.10;99.90;;;;;;4977441;28;20193;-85
2022/04/19 02:32:58;;;;;;;0.80;0.80;;;-1.10;99.90;;;;;;4976002;28;20200;-86
2022/04/19 02:35:26;;;;;;;0.80;0.80;;;-1.20;99.90;;;;;;4975179;28;20196;-85
2022/04/19 02:37:54;;;;;;;0.80;0.80;;;-1.20;99.90;;;;;;4973215;28;20196;-85
2022/04/19 02:40:21;;;;;;;0.80;0.80;;;-1.20;99.90;;;;;;4978970;28;20709;-85
2022/04/19 02:42:48;;;;;;;0.80;0.80;;;-1.30;99.90;;;;;;4996778;28;20203;-85
2022/04/19 02:45:14;;;;;;;0.70;0.70;;;-1.30;99.90;;;;;;4996647;28;20307;-84
2022/04/19 02:47:41;;;;;;;0.80;0.80;;;-1.30;99.90;;;;;;4995020;28;20242;-84
2022/04/19 02:50:07;;;;;;;0.70;0.70;;;-1.30;99.90;;;;;;4994334;28;20263;-84
2022/04/19 02:52:33;;;;;;;1.00;1.00;;;-1.30;99.90;;;;;;4978487;28;20196;-84
2022/04/19 02:54:59;;;;;;;0.70;0.70;;;-1.40;99.90;;;;;;4996521;28;20210;-85
2022/04/19 02:57:25;;;;;;;0.70;0.70;;;-1.40;99.90;;;;;;4994728;28;20200;-85
2022/04/19 02:59:51;;;;;;;0.68;0.68;;;-1.40;99.90;;;;;;4994979;28;20199;-85
2022/04/19 03:02:18;;;;;;;0.60;0.60;;;-1.40;99.90;;;;;;4973946;28;20196;-85
2022/04/19 03:04:43;;;;;;;0.90;0.90;;;-1.40;99.90;;;;;;4972381;28;20219;-85
2022/04/19 03:07:09;;;;;;;1.60;1.50;;;-1.40;99.90;;;;;;4975618;28;20564;-85
2022/04/19 03:09:35;;;;;;;0.63;0.63;;;-1.40;99.90;;;;;;4958958;28;20578;-86
2022/04/19 03:12:01;;;;;;;0.75;0.75;;;-1.40;99.90;;;;;;4976650;28;20196;-86
2022/04/19 03:14:28;;;;;;;0.70;0.70;;;-1.40;99.90;;;;;;4974893;28;20286;-85
2022/04/19 03:16:54;;;;;;;0.70;0.70;;;-1.40;99.90;;;;;;4991262;28;20243;-85
2022/04/19 03:19:20;;;;;;;0.70;0.70;;;-1.40;99.90;;;;;;4976268;28;20200;-85
2022/04/19 03:21:45;;;;;;;0.80;0.80;;;-1.40;99.90;;;;;;4976046;28;20224;-85
2022/04/19 03:29:39;;;;;;;0.80;0.80;;;-1.50;99.90;;;;;;4957032;29;20203;-85
2022/04/19 03:32:05;;;;;;;0.63;0.63;;;-1.50;99.90;;;;;;4955520;28;20209;-85
2022/04/19 03:34:31;;;;;;;0.68;0.68;;;-1.50;99.90;;;;;;4958541;28;20200;-85
2022/04/19 03:36:56;;;;;;;0.80;0.80;;;-1.60;99.90;;;;;;4976238;28;20197;-86
2022/04/19 03:39:22;;;;;;;0.75;0.75;;;-1.60;99.90;;;;;;4958228;28;20263;-86
2022/04/19 03:41:48;;;;;;;0.70;0.70;;;-1.60;99.90;;;;;;4974656;28;20207;-85
2022/04/19 03:44:13;;;;;;;0.68;0.68;;;-1.50;99.90;;;;;;4974895;28;20642;-85
2022/04/19 03:49:27;;;;;;;0.77;0.77;;;-1.40;99.90;;;;;;4976212;28;20236;-85
2022/04/19 03:51:53;;;;;;;0.80;0.80;;;-1.40;99.90;;;;;;4958425;28;20193;-86
2022/04/19 03:54:18;;;;;;;0.90;0.90;;;-1.40;99.90;;;;;;4958789;28;20623;-85
2022/04/19 03:56:44;;;;;;;1.35;1.25;;;-1.40;99.90;;;;;;4954069;28;20193;-85
2022/04/19 03:59:10;;;;;;;0.70;0.70;;;-1.50;99.90;;;;;;4977516;28;20219;-86
2022/04/19 04:01:39;;;;;;;1.00;1.00;;;-1.40;99.90;;;;;;4977040;28;20200;-85
2022/04/19 04:04:07;;;;;;;0.80;0.80;;;-1.20;99.90;;;;;;4975979;28;20256;-84
2022/04/19 04:06:35;;;;;;;0.80;0.80;;;-1.10;99.90;;;;;;4958132;28;20200;-85
2022/04/19 04:09:01;;;;;;;0.80;0.80;;;-0.80;99.90;;;;;;4975300;28;20188;-84
2022/04/19 04:11:27;;;;;;;0.90;0.90;;;-0.70;99.90;;;;;;4974970;28;20195;-86
2022/04/19 04:13:53;;;;;;;1.42;1.33;;;-0.50;99.90;;;;;;4988350;28;20632;-86
2022/04/19 04:16:19;;;;;;;0.80;0.80;;;-0.40;99.90;;;;;;4984940;28;20255;-84
2022/04/19 04:18:44;;;;;;;1.60;1.00;;;-0.40;99.90;;;;;;4994006;28;20204;-85
2022/04/19 04:21:10;;;;;;;0.68;0.68;;;-0.40;99.90;;;;;;4995415;28;20750;-86
2022/04/19 04:23:36;;;;;;;0.65;0.65;;;-0.40;99.90;;;;;;4980737;28;20200;-85
2022/04/19 04:26:02;;;;;;;0.60;0.60;;;-0.40;99.90;;;;;;4974476;28;20249;-86
2022/04/19 04:28:27;;;;;;;0.80;0.80;;;-0.50;99.90;;;;;;4975586;28;20595;-87
2022/04/19 04:30:53;;;;;;;0.75;0.75;;;-0.40;99.90;;;;;;4975343;28;20283;-85
2022/04/19 04:33:19;;;;;;;0.70;0.70;;;-0.40;99.90;;;;;;4976960;28;20199;-86
2022/04/19 04:35:45;;;;;;;0.65;0.65;;;-0.40;99.90;;;;;;4994610;28;20199;-87
2022/04/19 04:38:10;;;;;;;0.70;0.70;;;-0.40;99.90;;;;;;4997471;28;20199;-86
2022/04/19 04:40:36;;;;;;;0.80;0.80;;;-0.40;99.90;;;;;;4997835;28;20219;-84
2022/04/19 04:43:02;;;;;;;0.77;0.77;;;-0.30;99.90;;;;;;4996553;28;20195;-90
2022/04/19 04:45:27;;;;;;;0.77;0.77;;;-0.20;99.90;;;;;;4997781;28;20211;-87
2022/04/19 04:50:37;;;;;;;0.80;0.80;;;0.00;99.90;;;;;;4998053;28;20248;-86
2022/04/19 04:53:03;;;;;;;0.95;0.95;;;0.10;99.90;;;;;;4992066;28;20274;-85
2022/04/19 04:55:29;;;;;;;0.90;0.90;;;0.30;99.90;;;;;;4976934;28;20678;-85
2022/04/19 04:57:58;;;;;;;27.02;3.03;;;0.40;99.90;;;;;;4976774;28;20197;-84
2022/04/19 05:00:27;;;;;;;1.23;1.17;;;0.60;99.90;;;;;;4973334;28;20543;-82
2022/04/19 05:02:54;;;;;;;0.70;0.70;;;0.70;99.90;;;;;;4958905;28;20263;-83
2022/04/19 05:05:20;;;;;;;0.60;0.60;;;0.80;99.90;;;;;;4960639;28;20675;-83
2022/04/19 05:07:46;;;;;;;0.68;0.68;;;0.90;99.90;;;;;;4977963;28;20648;-82
2022/04/19 05:10:13;;;;;;;1.38;1.27;;;1.10;99.90;;;;;;4977608;28;20192;-83
2022/04/19 05:12:38;;;;;;;1.05;1.05;;;1.30;99.90;;;;;;4978039;28;20707;-83
2022/04/19 05:15:05;;;;;;;0.93;0.88;;;1.40;99.90;;;;;;4977797;28;20255;-83
2022/04/19 05:17:31;;;;;;;0.70;0.70;;;1.50;99.90;;;;;;4956831;28;20260;-83
2022/04/19 05:19:57;;;;;;;0.80;0.80;;;1.60;99.90;;;;;;4975352;28;20637;-84
2022/04/19 05:22:23;;;;;;;0.70;0.70;;;1.70;99.90;;;;;;4976649;28;20278;-84
2022/04/19 05:24:49;;;;;;;0.90;0.90;;;1.80;99.90;;;;;;4960387;28;20254;-83
2022/04/19 05:27:15;;;;;;;0.90;0.90;;;1.90;99.90;;;;;;4966503;28;20728;-83
2022/04/19 05:29:40;;;;;;;0.60;0.60;;;2.00;99.90;;;;;;4976290;28;20294;-83
2022/04/19 05:32:07;;;;;;;0.70;0.70;;;2.10;99.90;;;;;;4960227;28;20567;-83
2022/04/19 05:34:33;;;;;;;0.80;0.80;;;2.20;99.90;;;;;;4959910;28;20235;-84
2022/04/19 05:36:58;;;;;;;0.70;0.70;;;2.40;99.90;;;;;;4960523;28;20615;-83
2022/04/19 05:39:24;;;;;;;0.60;0.60;;;2.60;99.90;;;;;;4977018;28;20200;-84
2022/04/19 05:41:50;;;;;;;0.55;0.55;;;2.70;99.90;;;;;;4960422;28;20270;-84
2022/04/19 05:44:15;;;;;;;0.70;0.70;;;2.90;99.90;;;;;;4960014;28;20207;-84
2022/04/19 05:46:41;;;;;;;1.40;1.30;;;3.10;99.90;;;;;;4976863;28;20309;-84
2022/04/19 05:49:07;;;;;;;0.82;0.82;;;3.20;99.90;;;;;;4961336;28;20255;-84
2022/04/19 05:51:34;;;;;;;0.85;0.85;;;3.40;99.90;;;;;;4975903;28;20283;-84
2022/04/19 05:54:00;;;;;;;0.95;0.95;;;3.60;99.90;;;;;;4992162;28;20640;-84
2022/04/19 05:56:26;;;;;;;0.70;0.70;;;3.80;99.90;;;;;;4979048;28;20204;-84
2022/04/19 05:58:51;;;;;;;1.20;1.10;;;3.90;99.90;;;;;;4979173;28;20271;-84
2022/04/19 06:01:18;;;;;;;0.98;0.90;;;4.10;99.90;;;;;;4978881;28;20211;-84
2022/04/19 06:06:28;;;;;;;1.00;1.00;;;4.30;99.90;;;;;;4996215;28;20218;-84
2022/04/19 06:08:54;;;;;;;0.70;0.70;;;4.40;99.90;;;;;;4996363;28;20283;-83
2022/04/19 06:11:21;;;;;;;0.80;0.80;;;4.60;99.90;;;;;;4994853;28;20218;-83
2022/04/19 06:13:47;;;;;;;0.80;0.80;;;4.80;99.90;;;;;;4996489;28;20191;-84
2022/04/19 06:16:13;;;;;;;0.70;0.70;;;4.90;99.90;;;;;;4996149;28;20314;-84
2022/04/19 06:18:39;;;;;;;0.80;0.80;;;5.10;99.90;;;;;;4996418;28;20203;-85
2022/04/19 06:21:05;;;;;;;0.70;0.70;;;5.20;99.90;;;;;;4995508;28;20211;-85
2022/04/19 06:23:32;;;;;;;0.80;0.80;;;5.40;99.90;;;;;;4994457;28;20207;-86
2022/04/19 06:25:59;;;;;;;0.80;0.80;;;5.50;99.90;;;;;;4978832;28;20261;-86
2022/04/19 06:28:24;;;;;;;0.70;0.70;;;5.70;99.90;;;;;;4995882;28;20191;-86
2022/04/19 06:30:50;;;;;;;0.70;0.70;;;5.90;99.90;;;;;;4978765;28;20199;-84
2022/04/19 06:33:16;;;;;;;0.70;0.70;;;6.10;99.90;;;;;;4995973;28;20203;-86
2022/04/19 06:35:42;;;;;;;1.15;1.15;;;6.20;99.90;;;;;;4978409;28;20200;-87
2022/04/19 06:38:08;;;;;;;0.65;0.65;;;6.40;99.90;;;;;;4996174;28;20209;-86
2022/04/19 06:40:34;;;;;;;0.70;0.70;;;6.50;99.90;;;;;;4978262;28;20203;-87
2022/04/19 06:43:00;;;;;;;0.90;0.90;;;6.80;99.90;;;;;;4978521;28;20204;-88
2022/04/19 06:45:26;;;;;;;0.82;0.82;;;7.10;99.90;;;;;;4995770;28;20210;-87
2022/04/19 06:48:10;;;;;;;0.80;0.80;;;7.30;99.90;;;;;;4994228;28;20671;-86
2022/04/19 06:50:36;;;;;;;0.70;0.70;;;7.50;99.90;;;;;;4994455;28;20229;-86
2022/04/19 06:53:02;;;;;;;0.80;0.75;;;7.70;99.90;;;;;;4978938;28;20196;-86
2022/04/19 06:55:27;;;;;;;0.70;0.70;;;7.90;99.90;;;;;;4978130;28;20199;-86
2022/04/19 06:57:53;;;;;;;0.70;0.70;;;8.10;99.90;;;;;;4994957;28;20199;-86
2022/04/19 07:00:19;;;;;;;0.63;0.63;;;8.30;99.90;;;;;;4995682;28;20621;-85
2022/04/19 07:02:45;;;;;;;0.70;0.70;;;8.40;99.90;;;;;;4978218;28;20282;-85
2022/04/19 07:05:13;;;;;;;0.70;0.70;;;8.60;99.90;;;;;;4995884;28;20214;-85
2022/04/19 07:07:42;;;;;;;0.70;0.70;;;8.70;99.90;;;;;;4989899;28;20722;-85
2022/04/19 07:10:10;;;;;;;0.70;0.70;;;8.80;99.90;;;;;;4990558;28;20200;-85
2022/04/19 07:12:36;;;;;;;0.63;0.63;;;8.90;99.90;;;;;;4975954;28;20196;-86
2022/04/19 07:15:02;;;;;;;0.70;0.70;;;8.90;99.90;;;;;;4990914;28;20659;-85
2022/04/19 07:17:28;;;;;;;1.00;0.90;;;9.10;99.90;;;;;;4991033;28;20239;-87
2022/04/19 07:28:11;;;;;;;0.68;0.68;;;9.60;99.90;;;;;;4995494;28;20198;-86
2022/04/19 07:30:37;;;;;;;0.70;0.70;;;9.80;99.90;;;;;;4993974;28;20566;-86
2022/04/19 07:33:05;;;;;;;0.70;0.70;;;10.10;99.90;;;;;;4995250;28;20266;-87
2022/04/19 07:35:31;;;;;;;1.10;0.85;;;10.20;99.90;;;;;;4994854;28;20282;-86
2022/04/19 07:37:57;;;;;;;0.70;0.70;;;10.40;99.90;;;;;;4994104;28;20234;-87
2022/04/19 07:40:22;;;;;;;0.68;0.68;;;10.60;99.90;;;;;;4993834;28;20203;-87
2022/04/19 07:42:48;;;;;;;0.60;0.60;;;11.00;99.90;;;;;;4993465;28;20206;-85
2022/04/19 07:45:15;;;;;;;0.60;0.60;;;11.20;99.90;;;;;;4994130;28;20298;-86
2022/04/19 07:47:41;;;;;;;1.02;1.02;;;11.20;99.90;;;;;;4995480;28;20191;-87
2022/04/19 07:50:07;;;;;;;2.15;1.38;;;11.30;99.90;;;;;;4978096;28;20254;-87
2022/04/19 07:52:33;;;;;;;0.60;0.60;;;11.50;99.90;;;;;;4994491;28;20202;-87
2022/04/19 07:54:58;;;;;;;0.70;0.70;;;11.60;99.90;;;;;;4995916;28;20200;-87
2022/04/19 07:57:24;;;;;;;0.70;0.70;;;11.90;99.90;;;;;;4977130;28;20396;-87
2022/04/19 07:59:53;;;;;;;0.70;0.70;;;12.20;99.90;;;;;;4993594;28;20203;-86
2022/04/19 08:02:19;;;;;;;0.70;0.70;;;12.50;99.90;;;;;;4977270;28;20199;-85
2022/04/19 08:04:45;;;;;;;0.50;0.50;;;12.50;99.90;;;;;;4977250;28;20218;-86
2022/04/19 08:07:11;;;;;;;1.92;0.90;;;12.80;99.90;;;;;;4995514;28;20693;-87
2022/04/19 08:09:37;;;;;;;4.18;1.92;;;13.00;99.90;;;;;;4994052;28;20200;-87
2022/04/19 08:12:03;;;;;;;0.63;0.63;;;13.20;99.90;;;;;;4995563;28;20262;-86
2022/04/19 08:14:29;;;;;;;0.50;0.50;;;13.50;99.90;;;;;;4994928;28;20187;-84
2022/04/19 08:16:55;;;;;;;0.88;0.88;;;13.70;99.90;;;;;;4994342;28;20656;-86
2022/04/19 08:19:21;;;;;;;0.50;0.50;;;13.90;99.90;;;;;;4995153;28;20257;-86
2022/04/19 08:21:46;;;;;;;0.45;0.45;;;14.10;99.90;;;;;;4995318;28;20581;-85
2022/04/19 08:24:12;;;;;;;0.50;0.50;;;14.40;99.90;;;;;;4995706;28;20202;-86
2022/04/19 08:26:38;;;;;;;0.95;0.75;;;14.50;99.90;;;;;;4994671;28;20270;-86
2022/04/19 08:29:03;;;;;;;0.50;0.50;;;14.60;99.90;;;;;;4994713;28;20203;-86
2022/04/19 08:31:29;;;;;;;1.27;1.02;;;14.60;99.90;;;;;;4993643;28;20199;-86
2022/04/19 08:33:55;;;;;;;0.65;0.65;;;14.90;99.90;;;;;;4996194;28;20270;-87
2022/04/19 08:36:20;;;;;;;1.17;1.08;;;15.00;99.90;;;;;;4996051;28;20198;-86
2022/04/19 08:38:47;;;;;;;0.50;0.50;;;15.10;99.90;;;;;;4986890;28;20203;-86
2022/04/19 08:41:17;;;;;;;0.60;0.60;;;15.30;99.90;;;;;;4995791;28;20198;-85
2022/04/19 08:43:45;;;;;;;1.13;1.02;;;15.30;99.90;;;;;;4993934;28;20211;-85
2022/04/19 08:46:11;;;;;;;1.08;0.75;;;15.50;99.90;;;;;;4993274;28;20215;-85
2022/04/19 08:48:38;;;;;;;0.40;0.40;;;15.70;99.90;;;;;;4995910;28;20274;-88
2022/04/19 08:51:08;;;;;;;0.50;0.50;;;15.90;99.90;;;;;;4995420;28;20242;-87
2022/04/19 08:59:05;;;;;;;0.68;0.68;;;16.20;99.40;;;;;;4995281;28;20630;-88
2022/04/19 09:01:31;;;;;;;0.85;0.65;;;16.00;98.60;;;;;;4977976;28;20204;-88
2022/04/19 09:03:57;;;;;;;0.57;0.57;;;16.00;99.90;;;;;;4975276;28;20219;-88
2022/04/19 09:06:53;;;;;;;0.77;0.70;;;16.30;99.90;;;;;;4990388;28;20354;-88
2022/04/19 09:09:27;;;;;;;0.40;0.40;;;16.60;99.40;;;;;;4976214;28;20200;-88
2022/04/19 09:12:10;;;;;;;1.40;0.98;;;17.00;98.50;;;;;;4985114;28;20219;-88
2022/04/19 09:14:53;;;;;;;0.63;0.60;;;17.30;97.60;;;;;;4995238;28;20226;-88
2022/04/19 09:17:28;;;;;;;0.73;0.73;;;17.50;96.60;;;;;;4977388;28;20757;-88
2022/04/19 09:20:07;;;;;;;1.08;0.82;;;17.80;95.40;;;;;;4977537;28;20199;-86
2022/04/19 09:22:33;;;;;;;0.35;0.35;;;17.90;94.90;;;;;;4976859;28;20674;-86
2022/04/19 09:25:17;;;;;;;0.32;0.32;;;18.10;93.90;;;;;;4978263;28;20216;-88
2022/04/19 09:27:44;;;;;;;0.57;0.57;;;18.00;94.20;;;;;;4977431;28;20199;-86
2022/04/19 09:30:17;;;;;;;0.43;0.35;;;18.20;93.70;;;;;;4979322;28;20215;-88
2022/04/19 09:33:14;;;;;;;0.40;0.40;;;18.40;91.40;;;;;;4977653;28;20196;-88
2022/04/19 09:35:47;;;;;;;0.30;0.30;;;18.50;92.80;;;;;;4994777;28;20671;-87
2022/04/19 09:38:13;;;;;;;0.30;0.30;;;18.50;91.60;;;;;;4996864;28;20206;-87
2022/04/19 09:40:46;;;;;;;0.60;0.60;;;18.60;91.10;;;;;;4998249;28;21163;-88
2022/04/19 09:43:17;;;;;;;2.33;0.82;;;19.10;90.90;;;;;;4984273;28;20207;-86
2022/04/19 09:45:51;;;;;;;7.78;2.05;;;19.20;86.30;;;;;;4998242;28;20231;-87
2022/04/19 09:48:21;;;;;;;0.32;0.32;;;19.40;87.40;;;;;;4998042;28;20199;-87
2022/04/19 09:51:03;;;;;;;0.77;0.50;;;19.60;88.20;;;;;;4996695;28;20219;-88
2022/04/19 09:53:45;;;;;;;0.38;0.38;;;19.90;88.30;;;;;;4997514;28;20223;-87
2022/04/19 09:56:19;;;;;;;0.35;0.35;;;20.20;84.40;;;;;;4993538;28;20200;-87
2022/04/19 09:58:50;;;;;;;0.43;0.43;;;20.00;85.10;;;;;;4992941;28;20208;-87
2022/04/19 10:09:34;;;;;;;0.20;0.20;;;20.90;74.70;;;;;;4977671;28;20656;-89
2022/04/19 10:12:05;;;;;;;0.25;0.25;;;20.80;72.90;;;;;;4976220;28;20268;-87
2022/04/19 10:14:32;;;;;;;0.52;0.30;;;20.90;70.00;;;;;;4975974;28;20193;-87
2022/04/19 10:16:58;;;;;;;0.40;0.25;;;20.50;69.00;;;;;;4969839;28;20301;-87
2022/04/19 10:19:25;;;;;;;0.85;0.77;;;20.40;70.60;;;;;;4953612;28;20205;-86
2022/04/19 10:21:52;;;;;;;0.50;0.50;;;20.40;67.90;;;;;;4938257;29;20561;-87
2022/04/19 10:24:19;;;;;;;0.30;0.30;;;20.80;71.90;;;;;;4938807;29;20201;-87
2022/04/19 10:26:49;;;;;;;0.25;0.25;;;20.90;69.80;;;;;;4922173;29;20244;-87
2022/04/19 10:29:43;;;;;;;0.93;0.63;;;21.20;73.30;;;;;;4921829;29;20245;-88
2022/04/19 10:32:10;;;;;;;1.08;0.60;;;20.70;67.20;;;;;;4955301;28;20205;-88
2022/04/19 10:34:38;;;;;;;0.30;0.30;;;20.50;71.00;;;;;;4939978;29;20204;-88
2022/04/19 10:37:15;;;;;;;1.50;0.43;;;21.20;68.30;;;;;;4958277;29;20229;-87
2022/04/19 10:39:46;;;;;;;0.20;0.20;;;21.90;67.10;;;;;;4956921;29;20675;-88
2022/04/19 10:42:32;;;;;;;0.80;0.70;;;22.20;66.50;;;;;;4958053;29;20645;-88
2022/04/19 10:45:17;;;;;;;0.25;0.25;;;22.50;62.90;;;;;;4956850;29;20292;-88
2022/04/19 10:47:58;;;;;;;5.93;0.93;;;22.50;64.20;;;;;;4940701;29;20197;-88
2022/04/19 10:50:30;;;;;;;0.43;0.43;;;22.90;63.00;;;;;;4957612;28;20193;-88
2022/04/19 10:53:03;;;;;;;0.30;0.30;;;23.00;62.40;;;;;;4957126;29;20664;-88
2022/04/19 10:55:33;;;;;;;0.20;0.20;;;22.70;58.60;;;;;;4939732;28;20696;-88
2022/04/19 11:00:42;;;;;;;0.50;0.38;;;22.60;60.50;;;;;;4957099;29;20676;-87
2022/04/19 11:03:12;;;;;;;0.20;0.20;;;22.50;59.40;;;;;;4955750;29;20798;-87
2022/04/19 11:05:46;;;;;;;0.20;0.20;;;22.30;58.20;;;;;;4952680;29;20232;-88
2022/04/19 11:08:24;;;;;;;0.30;0.30;;;22.50;59.50;;;;;;4936948;29;20201;-87
2022/04/19 11:10:56;;;;;;;3.92;0.43;;;23.00;59.70;;;;;;4953067;28;20221;-88
2022/04/19 11:13:23;;;;;;;0.40;0.40;;;23.30;58.10;;;;;;4937811;29;20725;-88
2022/04/19 11:16:05;;;;;;;0.30;0.30;;;23.80;60.50;;;;;;4953514;28;20364;-87
2022/04/19 11:18:32;;;;;;;0.30;0.30;;;23.10;56.50;;;;;;4955498;29;20201;-86
2022/04/19 11:21:03;;;;;;;0.40;0.40;;;23.10;57.80;;;;;;4957566;29;20204;-88
2022/04/19 11:23:41;;;;;;;0.20;0.20;;;22.40;59.50;;;;;;4939598;29;20711;-88
2022/04/19 11:26:09;;;;;;;0.20;0.20;;;22.00;60.70;;;;;;4955595;28;20224;-88
2022/04/19 11:28:35;;;;;;;0.40;0.40;;;22.40;59.80;;;;;;4952384;28;20194;-89
2022/04/19 11:31:01;;;;;;;0.55;0.45;;;22.60;59.40;;;;;;4978292;28;20222;-89
2022/04/19 11:33:32;;;;;;;0.47;0.47;;;22.70;57.00;;;;;;4978052;28;20550;-89
2022/04/19 11:36:06;;;;;;;0.35;0.35;;;22.30;58.50;;;;;;4978184;28;20206;-88
2022/04/19 11:38:35;;;;;;;0.20;0.20;;;22.50;58.80;;;;;;4978097;28;20229;-88
2022/04/19 11:46:46;;;;;;;0.20;0.20;;;22.90;58.80;;;;;;4995283;28;20218;-88
2022/04/19 11:49:34;;;;;;;0.10;0.10;;;23.40;59.40;;;;;;4994320;28;20195;-88
2022/04/19 11:52:08;;;;;;;0.22;0.22;;;23.50;57.70;;;;;;4977890;28;20195;-88
2022/04/19 11:54:34;;;;;;;0.40;0.40;;;23.40;57.10;;;;;;4994872;28;20670;-88
2022/04/19 11:57:07;;;;;;;13.48;0.88;;;23.60;57.00;;;;;;4977570;28;20283;-88
2022/04/19 11:59:39;;;;;;;0.20;0.20;;;23.70;56.80;;;;;;4993766;28;20254;-89
2022/04/19 12:02:17;;;;;;;0.68;0.60;;;22.90;56.70;;;;;;4974792;28;20193;-88
2022/04/19 12:04:56;;;;;;;0.20;0.20;;;22.80;57.20;;;;;;4958345;28;20204;-88
2022/04/19 12:07:24;;;;;;;0.30;0.30;;;23.20;55.70;;;;;;4957706;28;20265;-89
2022/04/19 12:09:51;;;;;;;0.20;0.20;;;23.20;56.10;;;;;;4992670;28;20188;-88
2022/04/19 12:12:19;;;;;;;0.10;0.10;;;23.50;56.90;;;;;;4995056;28;20709;-88
2022/04/19 12:14:50;;;;;;;0.10;0.10;;;24.00;56.30;;;;;;4974188;28;20770;-88
2022/04/19 12:17:20;;;;;;;0.30;0.30;;;24.30;56.30;;;;;;4976819;28;20373;-88
2022/04/19 12:19:46;;;;;;;0.40;0.40;;;24.50;56.40;;;;;;4995212;28;20290;-88
2022/04/19 12:22:23;;;;;;;0.20;0.20;;;24.80;52.20;;;;;;4974866;28;20204;-87
2022/04/19 12:24:53;;;;;;;0.10;0.10;;;24.30;53.40;;;;;;4974850;28;20203;-89
2022/04/19 12:27:31;;;;;;;0.10;0.10;;;24.60;54.20;;;;;;4965158;28;20203;-87
2022/04/19 12:30:08;;;;;;;0.20;0.20;;;24.50;53.60;;;;;;4974077;28;20200;-88
2022/04/19 12:32:59;;;;;;;0.20;0.20;;;24.30;53.30;;;;;;4957798;28;20199;-89
2022/04/19 12:35:26;;;;;;;0.10;0.10;;;23.90;54.80;;;;;;4957804;28;20203;-88
2022/04/19 12:38:03;;;;;;;0.20;0.20;;;23.30;54.40;;;;;;4957975;28;20200;-88
2022/04/19 12:40:29;;;;;;;0.20;0.20;;;22.50;53.80;;;;;;4975165;28;20196;-89
2022/04/19 12:42:55;;;;;;;0.88;0.52;;;22.90;55.10;;;;;;4958015;28;20203;-89
2022/04/19 12:45:21;;;;;;;0.30;0.30;;;23.10;55.20;;;;;;4957556;28;20215;-88
2022/04/19 12:47:49;;;;;;;0.20;0.20;;;22.80;54.60;;;;;;4975292;28;20185;-88
2022/04/19 12:50:19;;;;;;;0.30;0.30;;;22.60;53.80;;;;;;4958142;28;20211;-88
2022/04/19 12:52:47;;;;;;;0.20;0.20;;;23.10;56.20;;;;;;4975068;28;20188;-88
2022/04/19 12:55:14;;;;;;;0.20;0.20;;;23.40;56.20;;;;;;4973935;28;20571;-87
2022/04/19 12:57:44;;;;;;;0.25;0.25;;;23.60;54.70;;;;;;4977018;28;20290;-90
2022/04/19 13:00:11;;;;;;;0.10;0.10;;;24.00;53.70;;;;;;4978946;28;20192;-91
2022/04/19 13:02:38;;;;;;;0.10;0.10;;;23.90;54.80;;;;;;4977778;28;20200;-89
2022/04/19 13:05:04;;;;;;;0.20;0.20;;;23.40;52.10;;;;;;4962067;28;20201;-88
2022/04/19 13:13:02;;;;;;;0.20;0.20;;;22.80;56.80;;;;;;4979089;28;20271;-88
2022/04/19 13:15:34;;;;;;;0.43;0.43;;;22.80;54.50;;;;;;4960851;28;20763;-88
2022/04/19 13:18:00;;;;;;;0.20;0.20;;;22.20;55.60;;;;;;4977120;28;20215;-88
2022/04/19 13:20:26;;;;;;;0.65;0.47;;;22.40;56.50;;;;;;4976428;28;20247;-88
2022/04/19 13:22:52;;;;;;;0.30;0.30;;;22.60;57.20;;;;;;4965288;28;20192;-87
2022/04/19 13:25:20;;;;;;;0.20;0.20;;;22.90;55.40;;;;;;4980634;28;20214;-88
2022/04/19 13:27:47;;;;;;;0.20;0.20;;;22.80;56.20;;;;;;4961015;28;20202;-87
2022/04/19 13:30:13;;;;;;;0.20;0.20;;;23.10;56.10;;;;;;4978294;28;20681;-88
2022/04/19 13:32:42;;;;;;;0.30;0.30;;;23.10;56.60;;;;;;4960524;28;20295;-89
2022/04/19 13:35:09;;;;;;;0.82;0.65;;;23.10;58.60;;;;;;4961364;28;20251;-89
2022/04/19 13:40:20;;;;;;;0.50;0.38;;;23.10;58.10;;;;;;4978474;28;20290;-88
2022/04/19 13:42:46;;;;;;;0.38;0.38;;;23.20;59.10;;;;;;4978412;28;20245;-88
2022/04/19 13:45:12;;;;;;;0.10;0.10;;;23.00;56.00;;;;;;4978037;28;20208;-88
2022/04/19 13:47:38;;;;;;;0.30;0.30;;;23.00;58.40;;;;;;4976688;28;20200;-88
2022/04/19 13:50:04;;;;;;;0.20;0.20;;;23.40;57.70;;;;;;4960323;28;20208;-88